Time;durP1;ratioP1;P1;durP2;ratioP2;P2;SDS_P1;SDS_P2;PMS_P1;PMS_P2;Temp;Humidity;BMP_temperature;BMP_pressure;BME280_temperature;BME280_humidity;BME280_pressure;Samples;Min_cycle;Max_cycle;Signal;HPM_P1;HPM_P2
2023/08/01 00:00:35;;;;;;;7.43;4.63;;;;;;;22.77;nan;61828.34;5053352;28;20638;-59
2023/08/01 00:03:00;;;;;;;6.53;4.05;;;;;;;22.96;nan;61859.19;5059084;28;20206;-64
2023/08/01 00:05:26;;;;;;;6.97;4.38;;;;;;;23.03;nan;61934.91;5066264;28;20206;-61
2023/08/01 00:07:52;;;;;;;7.40;4.55;;;;;;;23.08;nan;62066.28;5053597;28;20234;-64
2023/08/01 00:10:17;;;;;;;5.20;3.90;;;;;;;23.26;nan;62013.75;5066247;28;20182;-63
2023/08/01 00:12:43;;;;;;;6.20;3.88;;;;;;;23.00;nan;61928.88;5073653;28;20272;-64
2023/08/01 00:15:09;;;;;;;6.38;4.00;;;;;;;23.21;nan;61986.66;5073693;28;20163;-60
2023/08/01 00:17:34;;;;;;;8.40;4.30;;;;;;;23.04;nan;62055.94;5070482;28;20180;-59
2023/08/01 00:20:01;;;;;;;5.82;4.13;;;;;;;23.08;nan;61958.81;5053587;28;20265;-63
2023/08/01 00:22:27;;;;;;;5.65;4.20;;;;;;;23.11;nan;61933.56;5053237;28;20244;-60
2023/08/01 00:24:52;;;;;;;7.72;4.50;;;;;;;22.92;nan;61948.47;5053073;28;20641;-62
2023/08/01 00:27:17;;;;;;;6.53;4.15;;;;;;;22.93;nan;61944.41;5053093;28;20225;-59
2023/08/01 00:29:43;;;;;;;7.68;4.40;;;;;;;22.71;nan;61881.44;5053269;28;20198;-61
2023/08/01 00:32:08;;;;;;;6.20;4.07;;;;;;;22.82;nan;62003.38;5052969;28;20181;-60
2023/08/01 00:34:33;;;;;;;5.68;3.95;;;;;;;22.77;nan;61898.69;5053589;28;20179;-60
2023/08/01 00:36:59;;;;;;;6.10;4.20;;;;;;;22.71;nan;62115.91;5052463;28;20193;-60
2023/08/01 00:39:24;;;;;;;7.30;4.22;;;;;;;22.60;nan;61868.38;5052980;28;20198;-59
2023/08/01 00:41:50;;;;;;;5.68;4.00;;;;;;;22.61;nan;62195.09;5053022;28;20221;-57
2023/08/01 00:44:15;;;;;;;5.22;3.92;;;;;;;22.60;nan;61918.44;5050724;28;20166;-59
2023/08/01 00:46:41;;;;;;;5.18;3.97;;;;;;;22.34;nan;61990.97;5055824;28;20551;-60
2023/08/01 00:49:08;;;;;;;7.50;4.30;;;;;;;22.57;nan;61893.59;5067068;28;20202;-60
2023/08/01 00:51:33;;;;;;;7.25;4.55;;;;;;;22.31;nan;61961.53;5053122;28;20190;-60
2023/08/01 00:54:00;;;;;;;5.75;4.05;;;;;;;22.22;nan;61701.41;5063833;28;20212;-60
2023/08/01 00:56:26;;;;;;;8.68;4.72;;;;;;;22.38;nan;61841.91;5072770;28;20202;-62
2023/08/01 00:58:51;;;;;;;5.85;3.83;;;;;;;22.35;nan;61901.00;5072802;28;20200;-62
2023/08/01 01:01:17;;;;;;;7.60;4.20;;;;;;;22.12;nan;61775.97;5073485;28;20166;-60
2023/08/01 01:03:42;;;;;;;4.45;3.80;;;;;;;22.36;nan;61873.50;5072631;28;20235;-60
2023/08/01 01:06:17;;;;;;;5.32;3.75;;;;;;;22.53;nan;61943.75;5072820;28;20166;-61
2023/08/01 01:08:43;;;;;;;6.43;4.00;;;;;;;22.28;nan;61856.59;5072497;28;20369;-61
2023/08/01 01:11:09;;;;;;;5.30;3.88;;;;;;;22.45;nan;62013.91;5072979;28;20345;-58
2023/08/01 01:13:34;;;;;;;5.50;4.30;;;;;;;22.35;nan;61859.34;5072949;28;20264;-60
2023/08/01 01:16:00;;;;;;;6.90;4.53;;;;;;;22.28;nan;61876.84;5054857;28;20231;-60
2023/08/01 01:18:25;;;;;;;7.28;4.63;;;;;;;22.14;nan;61809.47;5072566;28;20178;-60
2023/08/01 01:20:51;;;;;;;7.45;4.32;;;;;;;21.87;nan;61935.47;5072564;28;20211;-60
2023/08/01 01:23:18;;;;;;;6.50;4.18;;;;;;;21.72;nan;61803.97;5072616;28;20168;-62
2023/08/01 01:25:45;;;;;;;6.82;4.18;;;;;;;21.71;nan;61724.25;5072328;28;20204;-62
2023/08/01 01:28:11;;;;;;;7.18;4.57;;;;;;;20.33;nan;61759.00;5072384;28;20291;-58
2023/08/01 01:30:37;;;;;;;6.60;4.20;;;;;;;21.84;nan;61791.00;5072153;28;20550;-62
2023/08/01 01:33:03;;;;;;;6.35;3.97;;;;;;;21.65;nan;61852.66;5072802;28;20174;-62
2023/08/01 01:35:29;;;;;;;6.88;4.75;;;;;;;21.59;nan;61695.63;5072248;28;20170;-60
2023/08/01 01:37:55;;;;;;;5.95;4.30;;;;;;;21.72;nan;61767.56;5072237;28;20218;-61
2023/08/01 01:40:20;;;;;;;7.88;4.80;;;;;;;21.74;nan;61894.09;5072215;28;20662;-59
2023/08/01 01:42:45;;;;;;;6.60;4.07;;;;;;;21.67;nan;61753.50;5072377;28;20170;-62
2023/08/01 01:45:11;;;;;;;5.65;4.15;;;;;;;21.65;nan;61801.22;5072365;28;20180;-59
2023/08/01 01:47:36;;;;;;;6.75;4.18;;;;;;;21.68;nan;61791.06;5071232;28;20264;-61
2023/08/01 01:50:03;;;;;;;5.80;4.18;;;;;;;21.59;nan;61768.41;5071908;28;20637;-62
2023/08/01 01:52:28;;;;;;;6.22;4.10;;;;;;;21.44;nan;61748.78;5072052;28;20261;-62
2023/08/01 01:54:53;;;;;;;9.82;4.28;;;;;;;21.63;nan;61814.00;5072148;28;20249;-62
2023/08/01 01:57:19;;;;;;;6.22;4.45;;;;;;;21.60;nan;61827.31;5071960;28;20173;-57
2023/08/01 01:59:44;;;;;;;7.85;4.20;;;;;;;21.50;nan;61701.00;5071832;28;20232;-61
2023/08/01 02:02:10;;;;;;;8.07;4.47;;;;;;;21.56;nan;61778.56;5071630;28;20200;-58
2023/08/01 02:04:35;;;;;;;6.05;4.28;;;;;;;21.25;nan;61662.84;5071370;28;20195;-62
2023/08/01 02:07:00;;;;;;;5.68;4.05;;;;;;;21.22;nan;61654.25;5071970;28;20162;-56
2023/08/01 02:09:26;;;;;;;6.25;4.13;;;;;;;21.34;nan;61929.81;5071848;28;20205;-57
2023/08/01 02:11:51;;;;;;;6.30;4.13;;;;;;;21.12;nan;61614.31;5071405;28;20166;-63
2023/08/01 02:14:17;;;;;;;5.85;4.30;;;;;;;21.32;nan;61685.78;5072096;28;20189;-60
2023/08/01 02:16:42;;;;;;;6.85;4.57;;;;;;;21.30;nan;61707.50;5072537;28;20170;-61
2023/08/01 02:19:08;;;;;;;6.80;4.50;;;;;;;21.20;nan;61677.97;5071328;28;20182;-58
2023/08/01 02:21:33;;;;;;;7.22;4.55;;;;;;;21.14;nan;61679.53;5072466;28;20296;-58
2023/08/01 02:23:58;;;;;;;7.25;4.65;;;;;;;21.09;nan;61797.97;5071694;28;20174;-62
2023/08/01 02:26:24;;;;;;;5.85;4.43;;;;;;;21.31;nan;61679.47;5071672;28;20655;-59
2023/08/01 02:28:50;;;;;;;6.60;4.20;;;;;;;21.13;nan;61672.63;5071334;28;20221;-59
2023/08/01 02:31:16;;;;;;;7.20;4.22;;;;;;;21.03;nan;61615.09;5071079;28;20223;-59
2023/08/01 02:33:41;;;;;;;5.65;3.85;;;;;;;21.03;nan;61680.03;5071114;28;20173;-59
2023/08/01 02:36:07;;;;;;;6.32;4.03;;;;;;;21.05;nan;61796.59;5071964;28;20170;-63
2023/08/01 02:38:32;;;;;;;6.30;4.07;;;;;;;21.25;nan;61716.84;5071544;28;20593;-62
2023/08/01 02:40:58;;;;;;;5.45;3.53;;;;;;;21.06;nan;61722.41;5071588;28;20220;-60
2023/08/01 02:43:23;;;;;;;5.28;3.70;;;;;;;21.14;nan;61674.31;5071436;28;20178;-62
2023/08/01 02:45:49;;;;;;;6.97;4.25;;;;;;;21.07;nan;61697.00;5071392;28;20162;-60
2023/08/01 02:48:14;;;;;;;6.28;4.20;;;;;;;21.05;nan;61742.03;5070925;28;20197;-59
2023/08/01 02:50:40;;;;;;;5.90;3.97;;;;;;;21.03;nan;61684.66;5071050;28;20167;-60
2023/08/01 02:53:05;;;;;;;7.55;4.60;;;;;;;21.08;nan;61674.75;5070906;28;20557;-59
2023/08/01 02:55:31;;;;;;;6.30;4.50;;;;;;;20.93;nan;61631.75;5071732;28;20177;-60
2023/08/01 02:57:56;;;;;;;6.72;4.18;;;;;;;21.08;nan;61706.50;5070587;28;20617;-60
2023/08/01 03:00:22;;;;;;;6.15;3.90;;;;;;;21.01;nan;61763.50;5074409;28;20171;-59
2023/08/01 03:02:47;;;;;;;5.97;4.25;;;;;;;20.79;nan;61769.69;5074241;28;20177;-60
2023/08/01 03:05:12;;;;;;;5.75;3.83;;;;;;;20.93;nan;61808.41;5075167;28;20173;-62
2023/08/01 03:07:38;;;;;;;6.05;4.25;;;;;;;20.92;nan;61654.00;5074383;28;20257;-58
2023/08/01 03:10:04;;;;;;;8.43;3.92;;;;;;;21.08;nan;61846.22;5074479;28;20257;-61
2023/08/01 03:12:29;;;;;;;6.40;4.43;;;;;;;21.27;nan;61833.47;5075001;28;20185;-62
2023/08/01 03:14:55;;;;;;;6.57;4.20;;;;;;;21.18;nan;61790.03;5075027;28;20268;-63
2023/08/01 03:17:20;;;;;;;5.45;3.75;;;;;;;21.35;nan;61863.34;5074843;28;20209;-59
2023/08/01 03:19:45;;;;;;;7.70;4.15;;;;;;;21.53;nan;62016.41;5074610;28;20552;-59
2023/08/01 03:22:11;;;;;;;6.72;3.83;;;;;;;21.53;nan;61772.56;5075117;28;20171;-62
2023/08/01 03:24:36;;;;;;;4.50;3.53;;;;;;;21.57;nan;61870.72;5074740;28;20617;-59
2023/08/01 03:27:02;;;;;;;7.20;4.03;;;;;;;21.96;nan;61992.56;5073647;28;20740;-59
2023/08/01 03:29:27;;;;;;;6.38;4.15;;;;;;;22.05;nan;61855.94;5074209;28;20289;-59
2023/08/01 03:31:53;;;;;;;6.50;4.30;;;;;;;22.23;nan;61923.25;5074346;28;20311;-59
2023/08/01 03:34:18;;;;;;;8.00;3.88;;;;;;;22.48;nan;62064.22;5074330;28;20174;-60
2023/08/01 03:36:44;;;;;;;4.97;3.75;;;;;;;22.97;nan;61965.16;5074609;28;20198;-61
2023/08/01 03:39:10;;;;;;;5.20;3.67;;;;;;;22.90;nan;61991.06;5074632;28;20275;-63
2023/08/01 03:41:36;;;;;;;6.65;3.88;;;;;;;22.37;nan;61986.03;5074457;28;20177;-60
2023/08/01 03:44:02;;;;;;;6.65;3.92;;;;;;;22.37;nan;62038.09;5074421;28;20268;-60
2023/08/01 03:46:27;;;;;;;6.63;3.80;;;;;;;22.35;nan;61853.56;5074496;28;20257;-61
2023/08/01 03:48:52;;;;;;;9.50;3.90;;;;;;;22.50;nan;61818.50;5073919;28;20587;-61
2023/08/01 03:51:19;;;;;;;7.50;4.18;;;;;;;22.77;nan;61953.41;5053179;28;20182;-61
2023/08/01 03:53:45;;;;;;;4.97;3.53;;;;;;;22.50;nan;61886.22;5053684;28;20179;-59
2023/08/01 03:56:11;;;;;;;5.78;3.90;;;;;;;22.52;nan;61929.59;5054057;28;20575;-62
2023/08/01 03:58:36;;;;;;;5.93;4.20;;;;;;;22.28;nan;62009.63;5053682;28;20288;-59
2023/08/01 04:01:02;;;;;;;6.57;3.70;;;;;;;22.20;nan;61852.72;5047454;28;20183;-62
2023/08/01 04:03:27;;;;;;;5.70;3.72;;;;;;;22.42;nan;61897.97;5033605;28;20642;-63
2023/08/01 04:05:52;;;;;;;5.55;3.67;;;;;;;22.17;nan;61994.50;5033834;28;20198;-61
2023/08/01 04:08:19;;;;;;;4.68;3.53;;;;;;;22.47;nan;61869.81;5033574;28;20227;-60
2023/08/01 04:10:45;;;;;;;6.05;3.83;;;;;;;22.35;nan;61788.47;5032426;28;20178;-61
2023/08/01 04:13:10;;;;;;;5.35;3.40;;;;;;;22.43;nan;62000.66;5033852;28;20195;-62
2023/08/01 04:15:35;;;;;;;5.32;3.72;;;;;;;22.12;nan;61947.16;5033492;28;20202;-63
2023/08/01 04:18:01;;;;;;;6.40;3.78;;;;;;;22.59;nan;62010.47;5035980;28;20178;-61
2023/08/01 04:20:26;;;;;;;6.40;3.75;;;;;;;22.66;nan;62058.09;5044029;28;20292;-60
2023/08/01 04:22:52;;;;;;;5.22;3.67;;;;;;;23.10;nan;62230.19;5042555;28;20175;-60
2023/08/01 04:25:17;;;;;;;6.43;4.18;;;;;;;23.42;nan;62054.88;5043476;28;20158;-60
2023/08/01 04:27:43;;;;;;;4.82;3.78;;;;;;;23.69;nan;62093.47;5045051;28;20222;-60
2023/08/01 04:30:08;;;;;;;6.95;3.58;;;;;;;23.89;nan;62156.88;5049010;28;20191;-60
2023/08/01 04:32:34;;;;;;;4.70;3.40;;;;;;;23.89;nan;62167.31;5047158;28;20241;-59
2023/08/01 04:34:59;;;;;;;4.78;3.83;;;;;;;24.18;nan;62106.38;5042791;28;20220;-59
2023/08/01 04:37:25;;;;;;;5.43;3.65;;;;;;;24.68;nan;62245.81;5044670;28;20192;-58
2023/08/01 04:39:51;;;;;;;5.22;3.80;;;;;;;25.66;nan;62463.88;5048712;28;20181;-60
2023/08/01 04:42:16;;;;;;;5.80;3.72;;;;;;;26.27;nan;62420.97;5044055;28;20161;-58
2023/08/01 04:44:42;;;;;;;4.25;2.90;;;;;;;27.05;nan;62498.50;5040843;28;20182;-61
2023/08/01 04:47:07;;;;;;;5.22;3.65;;;;;;;27.51;nan;62599.88;5032936;28;20168;-60
2023/08/01 04:49:32;;;;;;;4.07;3.15;;;;;;;27.49;nan;62644.84;5050093;28;20303;-63
2023/08/01 04:51:58;;;;;;;6.07;3.60;;;;;;;27.77;nan;62765.66;5051879;28;20221;-61
2023/08/01 04:54:23;;;;;;;4.55;3.40;;;;;;;27.60;nan;62738.88;5052909;28;20177;-61
2023/08/01 04:56:49;;;;;;;7.90;3.65;;;;;;;27.37;nan;62502.47;5052682;28;20190;-62
2023/08/01 04:59:14;;;;;;;5.53;3.72;;;;;;;27.26;nan;62587.56;5052996;28;20167;-62
2023/08/01 05:01:39;;;;;;;8.32;3.90;;;;;;;26.88;nan;62536.78;5052221;28;20174;-62
2023/08/01 05:04:05;;;;;;;6.43;3.65;;;;;;;26.57;nan;62386.53;5052679;28;20178;-61
2023/08/01 05:06:30;;;;;;;6.93;4.07;;;;;;;26.83;nan;62496.94;5052491;28;20563;-63
2023/08/01 05:08:55;;;;;;;8.07;3.20;;;;;;;27.09;nan;62696.69;5052424;28;20197;-62
2023/08/01 05:11:21;;;;;;;6.38;3.80;;;;;;;27.35;nan;62605.75;5051825;28;20171;-62
2023/08/01 05:13:47;;;;;;;6.88;4.00;;;;;;;27.07;nan;62700.22;5052379;28;20205;-59
2023/08/01 05:16:12;;;;;;;4.97;3.40;;;;;;;27.45;nan;62724.25;5052294;28;20166;-60
2023/08/01 05:18:37;;;;;;;3.75;2.90;;;;;;;27.05;nan;62503.19;5050771;28;20216;-63
2023/08/01 05:21:03;;;;;;;3.90;2.83;;;;;;;26.89;nan;62490.72;5057173;28;20185;-59
2023/08/01 05:23:29;;;;;;;3.97;2.92;;;;;;;26.53;nan;62654.63;5072020;28;20700;-60
2023/08/01 05:25:54;;;;;;;4.95;3.05;;;;;;;26.48;nan;62481.09;5063485;28;20183;-58
2023/08/01 05:28:19;;;;;;;4.20;3.03;;;;;;;26.01;nan;62472.47;5046249;28;20702;-63
2023/08/01 05:30:45;;;;;;;4.30;3.17;;;;;;;25.92;nan;62271.00;5054969;28;20186;-64
2023/08/01 05:33:10;;;;;;;3.65;2.95;;;;;;;25.64;nan;62593.06;5057940;28;20555;-63
2023/08/01 05:35:36;;;;;;;3.97;3.05;;;;;;;25.57;nan;62307.59;5063667;28;20178;-59
2023/08/01 05:38:01;;;;;;;3.78;3.08;;;;;;;25.66;nan;62323.09;5051860;28;20207;-61
2023/08/01 05:40:26;;;;;;;5.40;3.20;;;;;;;25.82;nan;62539.78;5064499;28;20570;-61
2023/08/01 05:42:52;;;;;;;5.30;3.13;;;;;;;25.97;nan;62371.00;5071729;28;20174;-62
2023/08/01 05:45:17;;;;;;;3.88;2.65;;;;;;;25.96;nan;62427.47;5071697;28;20611;-62
2023/08/01 05:47:43;;;;;;;5.95;3.10;;;;;;;26.05;nan;62410.97;5071714;28;20198;-60
2023/08/01 05:50:09;;;;;;;5.22;3.30;;;;;;;26.09;nan;62509.84;5071846;28;20162;-62
2023/08/01 05:52:34;;;;;;;5.28;3.05;;;;;;;26.22;nan;62548.34;5071811;28;20625;-61
2023/08/01 05:55:00;;;;;;;3.55;2.92;;;;;;;26.46;nan;62481.44;5071353;28;20166;-60
2023/08/01 05:57:25;;;;;;;3.05;2.50;;;;;;;26.51;nan;62578.34;5071647;28;20266;-59
2023/08/01 05:59:51;;;;;;;4.28;3.20;;;;;;;26.54;nan;62521.47;5071734;28;20226;-60
2023/08/01 06:02:16;;;;;;;4.95;3.17;;;;;;;26.34;nan;62664.88;5071023;28;20265;-61
2023/08/01 06:04:42;;;;;;;7.45;3.65;;;;;;;26.23;nan;62382.34;5072068;28;20177;-63
2023/08/01 06:07:07;;;;;;;4.07;2.90;;;;;;;26.63;nan;62458.38;5071831;28;20635;-63
2023/08/01 06:09:32;;;;;;;4.22;3.22;;;;;;;26.52;nan;62469.38;5071968;28;20201;-59
2023/08/01 06:11:58;;;;;;;4.38;3.10;;;;;;;26.66;nan;62443.44;5071478;28;20338;-61
2023/08/01 06:14:23;;;;;;;3.50;2.88;;;;;;;26.82;nan;62432.84;5071645;28;20170;-59
2023/08/01 06:16:49;;;;;;;3.83;3.00;;;;;;;27.18;nan;62560.63;5071331;28;20299;-58
2023/08/01 06:19:14;;;;;;;3.80;3.00;;;;;;;27.23;nan;62637.22;5072043;28;20200;-62
2023/08/01 06:21:40;;;;;;;4.57;3.05;;;;;;;27.11;nan;62657.56;5071988;28;20174;-60
2023/08/01 06:24:05;;;;;;;4.07;2.90;;;;;;;26.98;nan;62542.97;5072170;28;20292;-61
2023/08/01 06:26:31;;;;;;;4.50;3.17;;;;;;;27.13;nan;62535.97;5071456;28;20593;-63
2023/08/01 06:28:56;;;;;;;4.30;3.28;;;;;;;27.18;nan;62575.78;5071610;28;20271;-58
2023/08/01 06:31:22;;;;;;;3.33;2.72;;;;;;;26.96;nan;62519.69;5071224;28;20174;-62
2023/08/01 06:33:47;;;;;;;3.35;2.88;;;;;;;26.93;nan;62549.81;5071528;28;20154;-62
2023/08/01 06:36:13;;;;;;;4.32;3.00;;;;;;;26.87;nan;62509.41;5072253;28;20173;-62
2023/08/01 06:38:39;;;;;;;3.10;2.70;;;;;;;27.19;nan;62519.75;5053564;28;20186;-60
2023/08/01 06:41:04;;;;;;;3.50;2.65;;;;;;;26.91;nan;62552.78;5071546;28;20179;-62
2023/08/01 06:43:30;;;;;;;3.45;2.60;;;;;;;27.22;nan;62544.19;5071468;28;20657;-61
2023/08/01 06:45:55;;;;;;;3.42;2.80;;;;;;;27.36;nan;62567.50;5053936;28;20174;-61
2023/08/01 06:48:20;;;;;;;4.07;2.92;;;;;;;27.35;nan;62557.91;5071790;28;20205;-63
2023/08/01 06:50:46;;;;;;;3.70;2.85;;;;;;;27.56;nan;62618.75;5072087;28;20253;-61
2023/08/01 06:53:11;;;;;;;3.35;2.40;;;;;;;27.57;nan;62614.63;5071791;28;20220;-61
2023/08/01 06:55:37;;;;;;;3.92;2.92;;;;;;;27.63;nan;62821.09;5071534;28;20622;-62
2023/08/01 06:58:02;;;;;;;2.92;2.55;;;;;;;27.42;nan;62710.88;5071269;28;20231;-61
2023/08/01 07:00:28;;;;;;;4.72;3.03;;;;;;;27.20;nan;62667.88;5070972;28;20252;-61
2023/08/01 07:02:53;;;;;;;3.15;2.60;;;;;;;27.30;nan;62789.00;5071236;28;20166;-60
2023/08/01 07:05:18;;;;;;;3.42;2.60;;;;;;;27.32;nan;62576.06;5071764;28;20180;-63
2023/08/01 07:07:44;;;;;;;4.82;2.75;;;;;;;27.42;nan;62607.94;5071233;28;20265;-61
2023/08/01 07:10:10;;;;;;;4.38;2.38;;;;;;;27.78;nan;62661.75;5071211;28;20652;-62
2023/08/01 07:12:35;;;;;;;2.95;2.25;;;;;;;27.57;nan;62730.16;5071305;28;20202;-63
2023/08/01 07:15:01;;;;;;;3.97;2.90;;;;;;;27.57;nan;62696.59;5070796;28;20252;-62
2023/08/01 07:17:26;;;;;;;3.53;2.63;;;;;;;27.47;nan;62690.38;5053497;28;20637;-62
2023/08/01 07:19:52;;;;;;;3.28;2.55;;;;;;;27.57;nan;62638.81;5071244;28;20174;-62
2023/08/01 07:22:17;;;;;;;4.20;2.67;;;;;;;27.49;nan;62563.44;5071043;28;20727;-63
2023/08/01 07:24:42;;;;;;;4.32;2.58;;;;;;;27.23;nan;62587.34;5071501;28;20182;-62
2023/08/01 07:27:08;;;;;;;3.67;3.00;;;;;;;27.58;nan;62607.88;4447285;28;21652;-61
2023/08/01 07:29:33;;;;;;;4.00;2.95;;;;;;;27.71;nan;62714.13;4240446;28;20871;-60
2023/08/01 07:31:58;;;;;;;3.45;2.78;;;;;;;27.72;nan;62639.66;4738094;28;20183;-62
2023/08/01 07:34:24;;;;;;;3.20;2.45;;;;;;;27.85;nan;62625.09;5051471;28;20155;-61
2023/08/01 07:36:49;;;;;;;5.18;2.75;;;;;;;27.76;nan;62643.69;5050699;28;20236;-62
2023/08/01 07:39:16;;;;;;;3.33;2.60;;;;;;;28.13;nan;62738.06;5066270;28;20174;-61
2023/08/01 07:41:41;;;;;;;3.90;2.83;;;;;;;28.30;nan;62707.63;5053694;28;20179;-59
2023/08/01 07:44:07;;;;;;;4.28;2.92;;;;;;;28.25;nan;62686.69;5052810;28;20166;-64
2023/08/01 07:46:32;;;;;;;3.30;2.53;;;;;;;28.45;nan;62803.69;5073073;28;20178;-60
2023/08/01 07:48:59;;;;;;;3.53;2.65;;;;;;;28.65;nan;62774.03;5074722;28;20343;-64
2023/08/01 07:51:25;;;;;;;4.25;2.90;;;;;;;28.58;nan;62760.72;5074241;28;20573;-61
2023/08/01 07:53:52;;;;;;;3.15;2.58;;;;;;;27.82;nan;62613.78;5074085;28;20178;-60
2023/08/01 07:56:17;;;;;;;3.83;2.35;;;;;;;28.20;nan;62738.78;5073904;28;20722;-60
2023/08/01 07:58:43;;;;;;;4.85;2.85;;;;;;;27.97;nan;62954.16;5074106;28;20210;-63
2023/08/01 08:01:08;;;;;;;3.83;2.60;;;;;;;28.09;nan;62918.59;5074424;28;20227;-60
2023/08/01 08:03:34;;;;;;;4.07;2.88;;;;;;;28.05;nan;62711.63;5074690;28;20245;-60
2023/08/01 08:06:00;;;;;;;3.45;2.80;;;;;;;28.08;nan;62740.78;5067887;28;20316;-60
2023/08/01 08:08:26;;;;;;;4.28;2.85;;;;;;;27.85;nan;62622.44;5028899;28;20291;-63
2023/08/01 08:10:52;;;;;;;4.25;3.13;;;;;;;27.77;nan;62637.53;5020715;28;20198;-64
2023/08/01 08:13:17;;;;;;;3.45;2.72;;;;;;;28.25;nan;62663.03;5049393;28;20182;-65
2023/08/01 08:15:43;;;;;;;3.22;2.78;;;;;;;28.34;nan;62735.88;5071988;28;20187;-61
2023/08/01 08:18:08;;;;;;;4.55;3.30;;;;;;;28.40;nan;62713.81;5054405;28;20202;-62
2023/08/01 08:20:42;;;;;;;3.30;2.83;;;;;;;28.41;nan;62699.19;5059499;28;20667;-63
2023/08/01 08:23:07;;;;;;;4.63;2.83;;;;;;;28.60;nan;62818.28;5073795;28;20547;-60
2023/08/01 08:25:33;;;;;;;3.03;2.50;;;;;;;28.76;nan;62891.91;5073954;28;20249;-64
2023/08/01 08:27:58;;;;;;;3.60;2.72;;;;;;;29.12;nan;62834.69;5073632;28;20225;-62
2023/08/01 08:30:24;;;;;;;5.13;3.28;;;;;;;29.31;nan;62848.63;5073290;28;20170;-60
2023/08/01 08:32:50;;;;;;;3.78;3.05;;;;;;;29.33;nan;62785.06;5073380;28;20173;-63
2023/08/01 08:35:15;;;;;;;3.85;2.92;;;;;;;29.72;nan;62943.13;5073388;28;20189;-63
2023/08/01 08:37:41;;;;;;;3.92;2.90;;;;;;;29.29;nan;62835.75;5073555;28;20212;-63
2023/08/01 08:40:07;;;;;;;3.80;2.65;;;;;;;29.35;nan;62853.22;5073208;28;20169;-62
2023/08/01 08:42:35;;;;;;;3.13;2.60;;;;;;;29.44;nan;62900.41;5073077;28;20264;-61
2023/08/01 08:45:01;;;;;;;4.00;2.80;;;;;;;29.16;nan;62918.84;5073400;28;20165;-61
2023/08/01 08:47:28;;;;;;;4.05;2.83;;;;;;;28.86;nan;63045.50;5073254;28;20173;-63
2023/08/01 08:49:56;;;;;;;4.00;2.80;;;;;;;28.52;nan;62822.25;5073143;28;20288;-63
2023/08/01 08:52:23;;;;;;;3.42;2.63;;;;;;;28.27;nan;62688.41;5073395;28;20692;-63
2023/08/01 08:54:50;;;;;;;4.03;3.20;;;;;;;28.49;nan;62774.66;5048102;28;20178;-62
2023/08/01 08:57:16;;;;;;;3.75;2.80;;;;;;;28.48;nan;62917.59;5051870;28;20221;-63
2023/08/01 08:59:43;;;;;;;4.93;2.95;;;;;;;28.62;nan;62760.06;5052731;28;20692;-59
2023/08/01 09:02:09;;;;;;;3.92;2.85;;;;;;;28.99;nan;62807.75;5052441;28;20569;-63
2023/08/01 09:04:34;;;;;;;2.97;2.50;;;;;;;29.31;nan;62867.06;5052461;28;20166;-60
2023/08/01 09:07:05;;;;;;;4.35;3.08;;;;;;;29.44;nan;62905.69;5052612;28;20185;-61
2023/08/01 09:09:32;;;;;;;3.65;2.88;;;;;;;29.34;nan;62925.81;5034541;28;20189;-62
2023/08/01 09:11:58;;;;;;;3.65;2.90;;;;;;;29.91;nan;63101.47;5052268;28;20181;-60
2023/08/01 09:14:24;;;;;;;3.50;2.78;;;;;;;29.79;nan;62969.00;5052524;28;20178;-62
2023/08/01 09:16:50;;;;;;;5.32;3.30;;;;;;;29.78;nan;63057.50;5052243;28;20675;-61
2023/08/01 09:19:20;;;;;;;4.32;2.65;;;;;;;29.91;nan;62953.84;5052921;28;20577;-60
2023/08/01 09:21:47;;;;;;;3.60;2.80;;;;;;;30.00;nan;62985.28;5052603;28;20267;-61
2023/08/01 09:24:16;;;;;;;3.97;3.17;;;;;;;30.03;nan;62972.91;5052309;28;20283;-63
2023/08/01 09:26:42;;;;;;;3.38;2.50;;;;;;;29.94;nan;63089.09;5052206;28;20241;-62
2023/08/01 09:29:09;;;;;;;3.60;2.80;;;;;;;29.87;nan;63085.72;5052299;28;20271;-61
2023/08/01 09:31:39;;;;;;;3.65;2.83;;;;;;;29.71;nan;62859.69;5052641;28;20174;-61
2023/08/01 09:34:06;;;;;;;3.17;2.60;;;;;;;29.99;nan;62909.72;5052603;28;20175;-62
2023/08/01 09:36:33;;;;;;;3.60;2.80;;;;;;;30.54;nan;63144.41;5051546;28;20594;-59
2023/08/01 09:39:02;;;;;;;3.80;2.88;;;;;;;30.86;nan;63056.03;5051335;28;20178;-63
2023/08/01 09:41:31;;;;;;;3.35;2.92;;;;;;;30.83;nan;63164.03;5052636;28;20220;-66
2023/08/01 09:43:57;;;;;;;3.50;2.78;;;;;;;30.71;nan;63166.06;5052535;28;20178;-63
2023/08/01 09:46:24;;;;;;;3.40;2.65;;;;;;;31.09;nan;63214.56;5052924;28;20182;-62
2023/08/01 09:48:49;;;;;;;4.18;2.97;;;;;;;31.17;nan;63194.16;5052032;28;20201;-60
2023/08/01 09:51:17;;;;;;;4.20;3.55;;;;;;;31.00;nan;63167.78;5051555;28;20170;-64
2023/08/01 09:53:56;;;;;;;4.10;3.00;;;;;;;30.75;nan;63133.13;5051972;28;20188;-60
2023/08/01 09:56:28;;;;;;;5.05;3.20;;;;;;;30.62;nan;63269.19;5051511;28;20172;-59
2023/08/01 09:58:56;;;;;;;4.97;2.92;;;;;;;30.85;nan;63187.47;5051827;28;20159;-62
2023/08/01 10:01:24;;;;;;;4.18;2.95;;;;;;;30.79;nan;63122.47;5051731;28;20253;-60
2023/08/01 10:03:51;;;;;;;4.25;3.38;;;;;;;30.85;nan;63084.50;5051718;28;20170;-60
2023/08/01 10:06:22;;;;;;;5.25;3.40;;;;;;;30.98;nan;63122.66;5051035;28;20173;-62
2023/08/01 10:08:48;;;;;;;3.50;3.00;;;;;;;30.86;nan;63230.84;5050972;28;20204;-63
2023/08/01 10:11:18;;;;;;;6.25;3.40;;;;;;;31.12;nan;63170.47;5051111;28;20187;-60
2023/08/01 10:13:44;;;;;;;5.43;3.10;;;;;;;31.00;nan;63217.38;5051662;28;20166;-65
2023/08/01 10:16:11;;;;;;;4.90;3.38;;;;;;;30.98;nan;63310.69;4769289;28;20909;-64
2023/08/01 10:18:38;;;;;;;6.70;3.20;;;;;;;30.57;nan;63187.44;5047768;28;20231;-60
2023/08/01 10:21:09;;;;;;;5.20;3.50;;;;;;;30.78;nan;63089.06;5039696;28;20241;-60
2023/08/01 10:23:35;;;;;;;4.65;3.38;;;;;;;30.91;nan;63247.19;5051032;28;20170;-62
2023/08/01 10:26:04;;;;;;;5.60;3.28;;;;;;;31.05;nan;63205.25;5051028;28;20177;-60
2023/08/01 10:28:38;;;;;;;3.50;3.10;;;;;;;31.18;nan;63158.88;5050671;28;20228;-61
2023/08/01 10:31:14;;;;;;;4.25;3.20;;;;;;;30.88;nan;63114.34;5050769;28;20637;-61
2023/08/01 10:33:49;;;;;;;5.47;3.83;;;;;;;30.59;nan;63073.66;5051037;28;20182;-61
2023/08/01 10:36:27;;;;;;;4.60;3.38;;;;;;;30.45;nan;63081.28;5051457;28;20195;-61
2023/08/01 10:38:54;;;;;;;3.70;3.30;;;;;;;30.48;nan;63092.66;5050796;28;20162;-61
2023/08/01 10:41:27;;;;;;;5.13;3.35;;;;;;;30.32;nan;62947.03;5050852;28;20162;-58
2023/08/01 10:44:07;;;;;;;4.30;3.35;;;;;;;30.36;nan;63102.00;5051027;28;20660;-61
2023/08/01 10:46:52;;;;;;;4.10;3.17;;;;;;;30.50;nan;63086.47;5050757;28;20215;-63
2023/08/01 10:49:21;;;;;;;4.13;3.03;;;;;;;30.36;nan;63068.28;5051172;28;20189;-63
2023/08/01 10:51:47;;;;;;;4.65;3.35;;;;;;;30.31;nan;63157.50;5050737;28;20239;-61
2023/08/01 10:54:23;;;;;;;3.92;3.28;;;;;;;30.89;nan;63118.13;5051185;28;20174;-64
2023/08/01 10:56:51;;;;;;;4.35;3.28;;;;;;;31.10;nan;63202.50;5050850;28;20227;-60
2023/08/01 10:59:17;;;;;;;4.63;3.35;;;;;;;31.18;nan;63187.94;5050892;28;20169;-62
2023/08/01 11:01:48;;;;;;;4.93;3.22;;;;;;;31.31;nan;63253.09;5050794;28;20174;-62
2023/08/01 11:04:18;;;;;;;4.22;3.25;;;;;;;31.26;nan;63307.56;5050522;28;20660;-62
2023/08/01 11:06:49;;;;;;;4.20;3.22;;;;;;;31.53;nan;63228.28;5051305;28;20241;-60
2023/08/01 11:09:16;;;;;;;5.75;3.65;;;;;;;31.32;nan;63225.19;5050734;28;20221;-64
2023/08/01 11:11:41;;;;;;;4.47;3.40;;;;;;;31.00;nan;63193.59;5050742;28;20170;-62
2023/08/01 11:14:07;;;;;;;5.55;3.72;;;;;;;30.48;nan;63176.50;5050936;28;20279;-60
2023/08/01 11:16:32;;;;;;;4.20;3.10;;;;;;;30.89;nan;63202.06;5050553;28;20214;-67
2023/08/01 11:18:57;;;;;;;5.70;3.25;;;;;;;30.60;nan;63153.41;5050856;28;20182;-66
2023/08/01 11:21:29;;;;;;;4.68;3.45;;;;;;;30.46;nan;63016.47;5053771;28;20734;-59
2023/08/01 11:23:56;;;;;;;6.65;3.67;;;;;;;30.62;nan;63100.25;5054345;28;20206;-65
2023/08/01 11:26:22;;;;;;;5.10;3.67;;;;;;;30.76;nan;63110.50;5053645;28;20181;-64
2023/08/01 11:28:47;;;;;;;5.85;3.65;;;;;;;31.07;nan;63368.09;5056197;28;20241;-61
2023/08/01 11:31:13;;;;;;;5.10;4.00;;;;;;;30.90;nan;63160.97;5068792;28;20196;-63
2023/08/01 11:33:38;;;;;;;5.57;3.90;;;;;;;30.67;nan;63182.56;5044554;28;20182;-60
2023/08/01 11:36:05;;;;;;;5.47;4.00;;;;;;;31.18;nan;63155.66;5054196;28;20184;-62
2023/08/01 11:38:33;;;;;;;5.65;4.18;;;;;;;31.46;nan;63236.03;5073189;28;20223;-59
2023/08/01 11:41:00;;;;;;;5.55;4.00;;;;;;;31.67;nan;63200.97;5073922;28;20185;-61
2023/08/01 11:43:26;;;;;;;6.40;4.10;;;;;;;31.77;nan;63233.63;5073859;28;20165;-61
2023/08/01 11:45:58;;;;;;;5.10;4.30;;;;;;;31.27;nan;63222.09;5074255;28;20169;-60